createdAt,value
2023-02-06T00:02:46.170Z,99844.97
2023-02-06T00:07:48.029Z,99850.38
2023-02-06T00:12:49.743Z,99842.81
2023-02-06T00:17:51.329Z,99832.63
2023-02-06T00:22:52.969Z,99843.72
2023-02-06T00:27:54.649Z,99827.03
2023-02-06T00:32:56.320Z,99826.19
2023-02-06T00:37:59.789Z,99822.75
2023-02-06T00:43:02.448Z,99823.56
2023-02-06T00:48:04.194Z,99829.38
2023-02-06T00:53:05.893Z,99825.31
2023-02-06T00:58:07.568Z,99828.84
2023-02-06T01:03:09.208Z,99837.31
2023-02-06T01:08:10.908Z,99841.56
2023-02-06T01:13:12.903Z,99841.50
2023-02-06T01:18:15.991Z,99835.97
2023-02-06T01:23:17.623Z,99824.56
2023-02-06T01:28:19.265Z,99835.59
2023-02-06T01:33:21.715Z,99844.69
2023-02-06T01:38:23.339Z,99844.47
2023-02-06T01:43:29.118Z,99848.72
2023-02-06T01:48:37.901Z,99843.59
2023-02-06T01:53:42.458Z,99839.31
2023-02-06T01:58:47.783Z,99851.22
2023-02-06T02:03:52.573Z,99859.78
2023-02-06T02:08:58.468Z,99849.03
2023-02-06T02:14:03.433Z,99841.44
2023-02-06T02:19:23.854Z,99860.66
2023-02-06T02:24:32.685Z,99841.22
2023-02-06T02:30:05.814Z,99842.00
2023-02-06T02:35:46.145Z,99838.91
2023-02-06T02:40:51.663Z,99823.59
2023-02-06T02:46:08.882Z,99807.31
2023-02-06T02:51:11.609Z,99794.66
2023-02-06T02:56:19.617Z,99793.34
2023-02-06T03:01:29.193Z,99792.59
2023-02-06T03:06:44.112Z,99779.25
2023-02-06T03:11:55.908Z,99776.88
2023-02-06T03:17:10.436Z,99788.34
2023-02-06T03:22:14.929Z,99788.97
2023-02-06T03:27:17.700Z,99778.03
2023-02-06T03:32:29.739Z,99762.94
2023-02-06T03:37:32.432Z,99761.53
2023-02-06T03:42:38.981Z,99773.09
2023-02-06T03:47:43.094Z,99782.81
2023-02-06T03:52:48.696Z,99767.00
2023-02-06T03:57:55.112Z,99774.34
2023-02-06T04:02:57.490Z,99796.34
2023-02-06T04:07:59.116Z,99803.16
2023-02-06T04:13:00.732Z,99796.75
2023-02-06T04:18:02.822Z,99794.84
2023-02-06T04:23:05.031Z,99781.16
2023-02-06T04:28:06.726Z,99789.53
2023-02-06T04:33:08.404Z,99784.19
2023-02-06T04:38:10.033Z,99764.28
2023-02-06T04:43:11.719Z,99775.38
2023-02-06T04:48:13.318Z,99782.16
2023-02-06T04:53:14.974Z,99804.38
2023-02-06T04:58:16.683Z,99819.00
2023-02-06T05:03:18.303Z,99823.41
2023-02-06T05:08:19.931Z,99819.16
2023-02-06T05:13:21.986Z,99813.13
2023-02-06T05:18:24.342Z,99817.25
2023-02-06T05:23:25.989Z,99813.66
2023-02-06T05:28:29.961Z,99802.25
2023-02-06T05:33:31.833Z,99806.13
2023-02-06T05:38:34.213Z,99800.66
2023-02-06T05:43:36.170Z,99785.94
2023-02-06T05:48:38.565Z,99795.00
2023-02-06T05:53:40.231Z,99787.38
2023-02-06T05:58:41.823Z,99795.75
2023-02-06T06:03:43.541Z,99780.16
2023-02-06T06:08:45.185Z,99764.84
2023-02-06T06:13:46.781Z,99773.09
2023-02-06T06:18:48.404Z,99765.53
2023-02-06T06:23:50.114Z,99766.06
2023-02-06T06:28:51.870Z,99761.78
2023-02-06T06:33:54.231Z,99764.34
2023-02-06T06:38:55.972Z,99758.22
2023-02-06T06:43:58.601Z,99762.31
2023-02-06T06:49:01.429Z,99774.00
2023-02-06T06:54:03.215Z,99768.44
2023-02-06T06:59:04.829Z,99775.25
2023-02-06T07:04:06.473Z,99767.09
2023-02-06T07:09:08.111Z,99779.50
2023-02-06T07:14:09.761Z,99773.13
2023-02-06T07:19:11.458Z,99791.69
2023-02-06T07:24:13.052Z,99791.47
2023-02-06T07:29:14.729Z,99787.47
2023-02-06T07:34:16.929Z,99769.63
2023-02-06T07:39:18.606Z,99771.97
2023-02-06T07:44:20.265Z,99773.53
2023-02-06T07:49:21.850Z,99772.66
2023-02-06T07:54:23.505Z,99780.06
2023-02-06T07:59:25.645Z,99781.59
2023-02-06T08:04:29.462Z,99786.75
2023-02-06T08:09:31.226Z,99774.53
2023-02-06T08:14:32.996Z,99766.03
2023-02-06T08:19:34.603Z,99769.16
2023-02-06T08:24:36.232Z,99763.44
2023-02-06T08:29:42.391Z,99755.47
2023-02-06T08:34:44.543Z,99746.69
2023-02-06T08:39:46.158Z,99731.53
2023-02-06T08:44:48.085Z,99729.88
2023-02-06T08:49:50.999Z,99729.13
2023-02-06T08:54:52.956Z,99725.91
2023-02-06T08:59:54.560Z,99721.94
2023-02-06T09:04:56.171Z,99723.28
2023-02-06T09:09:57.842Z,99726.41
2023-02-06T09:14:59.497Z,99727.97
2023-02-06T09:20:01.886Z,99735.63
2023-02-06T09:25:03.643Z,99738.72
2023-02-06T09:30:05.907Z,99731.97
2023-02-06T09:35:07.789Z,99745.53
2023-02-06T09:40:12.665Z,99727.25
2023-02-06T09:45:18.735Z,99716.59
2023-02-06T09:50:27.671Z,99712.59
2023-02-06T09:55:48.376Z,99715.81
2023-02-06T10:01:14.209Z,99713.53
2023-02-06T10:06:23.887Z,99692.75
2023-02-06T10:11:48.338Z,99697.59
2023-02-06T10:16:58.405Z,99700.97
2023-02-06T10:22:38.972Z,99697.22
2023-02-06T10:27:44.129Z,99688.13
2023-02-06T10:33:31.440Z,99699.94
2023-02-06T10:39:23.850Z,99684.25
2023-02-06T10:44:50.831Z,99678.38
2023-02-06T10:50:01.911Z,99674.09
2023-02-06T10:55:16.176Z,99677.22
2023-02-06T11:00:25.064Z,99672.00
2023-02-06T11:05:29.492Z,99672.00
2023-02-06T11:10:32.265Z,99683.81
2023-02-06T11:15:58.789Z,99685.81
2023-02-06T11:21:00.965Z,99656.00
2023-02-06T11:26:15.750Z,99650.34
2023-02-06T11:31:19.856Z,99646.34
2023-02-06T11:36:37.198Z,99627.19
2023-02-06T11:41:38.933Z,99628.78
2023-02-06T11:46:40.852Z,99631.00
2023-02-06T11:51:51.555Z,99636.16
2023-02-06T11:57:03.277Z,99630.00
2023-02-06T12:02:27.039Z,99626.94
2023-02-06T12:07:41.647Z,99634.56
2023-02-06T12:12:49.746Z,99644.09
2023-02-06T12:18:03.980Z,99637.69
2023-02-06T12:23:15.568Z,99632.69
2023-02-06T12:28:39.487Z,99652.31
2023-02-06T12:33:47.858Z,99655.88
2023-02-06T12:39:07.536Z,99652.31
2023-02-06T12:44:24.501Z,99651.56
2023-02-06T12:49:49.074Z,99651.56
2023-02-06T12:54:58.651Z,99636.72
2023-02-06T13:00:34.354Z,99629.06
2023-02-06T13:05:49.227Z,99638.03
2023-02-06T13:11:04.938Z,99635.53
2023-02-06T13:16:07.727Z,99631.44
2023-02-06T13:21:32.686Z,99626.69
2023-02-06T13:26:43.354Z,99616.56
2023-02-06T13:31:44.979Z,99620.34
2023-02-06T13:36:52.290Z,99618.03
2023-02-06T13:41:54.654Z,99631.78
2023-02-06T13:47:11.704Z,99635.22
2023-02-06T13:52:31.683Z,99644.69
2023-02-06T13:58:14.716Z,99637.19
2023-02-06T14:03:23.887Z,99650.00
2023-02-06T14:09:00.624Z,99655.19
2023-02-06T14:14:21.733Z,99644.31
2023-02-06T14:19:34.539Z,99654.44
2023-02-06T14:25:16.518Z,99639.78
2023-02-06T14:30:29.867Z,99650.25
2023-02-06T14:35:47.107Z,99659.84
2023-02-06T14:40:55.190Z,99671.03
2023-02-06T14:46:07.429Z,99685.63
2023-02-06T14:51:22.080Z,99687.63
2023-02-06T14:56:36.614Z,99689.78
2023-02-06T15:01:39.152Z,99689.28
2023-02-06T15:06:45.016Z,99684.56
2023-02-06T15:11:51.960Z,99683.59
2023-02-06T15:16:56.793Z,99694.94
2023-02-06T15:22:19.245Z,99696.53
2023-02-06T15:27:34.074Z,99699.16
2023-02-06T15:32:38.607Z,99710.63
2023-02-06T15:37:40.218Z,99718.44
2023-02-06T15:42:42.221Z,99719.34
2023-02-06T15:47:46.061Z,99742.56
2023-02-06T15:52:48.234Z,99755.31
2023-02-06T15:57:50.172Z,99769.22
2023-02-06T16:02:54.551Z,99780.34
2023-02-06T16:07:56.982Z,99782.16
2023-02-06T16:13:01.579Z,99777.69
2023-02-06T16:18:25.179Z,99791.31
2023-02-06T16:23:26.883Z,99789.72
2023-02-06T16:28:29.408Z,99795.41
2023-02-06T16:33:38.587Z,99788.75
2023-02-06T16:38:40.536Z,99794.00
2023-02-06T16:43:42.381Z,99806.28
2023-02-06T16:48:44.010Z,99809.50
2023-02-06T16:53:48.255Z,99823.38
2023-02-06T16:58:50.353Z,99818.34
2023-02-06T17:03:53.052Z,99840.19
2023-02-06T17:08:58.289Z,99838.78
2023-02-06T17:14:00.032Z,99836.81
2023-02-06T17:19:01.907Z,99849.66
2023-02-06T17:24:03.830Z,99846.03
2023-02-06T17:29:05.741Z,99842.47
2023-02-06T17:34:07.398Z,99856.56
2023-02-06T17:39:12.803Z,99852.66
2023-02-06T17:44:17.129Z,99860.69
2023-02-06T17:49:18.842Z,99866.06
2023-02-06T17:54:20.479Z,99866.28
2023-02-06T17:59:22.120Z,99861.13
2023-02-06T18:04:24.898Z,99870.69
2023-02-06T18:09:26.565Z,99889.47
2023-02-06T18:14:28.322Z,99886.94
2023-02-06T18:19:30.398Z,99880.66
2023-02-06T18:24:32.205Z,99878.41
2023-02-06T18:29:48.996Z,99892.09
2023-02-06T18:34:51.292Z,99899.13
2023-02-06T18:39:55.076Z,99902.53
2023-02-06T18:44:56.784Z,99902.28
2023-02-06T18:49:58.408Z,99900.38
2023-02-06T18:55:00.152Z,99903.75
2023-02-06T19:00:02.366Z,99915.84
2023-02-06T19:05:04.230Z,99910.06
2023-02-06T19:10:10.078Z,99899.00
2023-02-06T19:15:12.648Z,99894.41
2023-02-06T19:20:14.348Z,99886.84
2023-02-06T19:25:16.141Z,99875.03
2023-02-06T19:30:17.800Z,99886.50
2023-02-06T19:35:20.382Z,99894.53
2023-02-06T19:40:22.010Z,99897.41
2023-02-06T19:45:23.700Z,99900.16
2023-02-06T19:50:25.358Z,99906.28
2023-02-06T19:55:27.061Z,99915.75
2023-02-06T20:00:29.291Z,99940.09
2023-02-06T20:05:33.444Z,99950.97
2023-02-06T20:10:37.793Z,99973.97
2023-02-06T20:15:39.978Z,99969.88
2023-02-06T20:20:41.675Z,99999.50
2023-02-06T20:25:43.297Z,99998.19
2023-02-06T20:30:45.024Z,100017.06
2023-02-06T20:35:46.683Z,100028.13
2023-02-06T20:40:51.519Z,100039.38
2023-02-06T20:45:53.285Z,100046.25
2023-02-06T20:50:59.579Z,100040.63
2023-02-06T20:56:01.227Z,100038.34
2023-02-06T21:01:11.032Z,100024.06
2023-02-06T21:06:14.071Z,100022.44
2023-02-06T21:11:16.364Z,100017.34
2023-02-06T21:16:17.967Z,100008.72
2023-02-06T21:21:20.407Z,99995.28
2023-02-06T21:26:23.741Z,100001.34
2023-02-06T21:31:38.163Z,99993.09
2023-02-06T21:36:40.400Z,100001.47
2023-02-06T21:41:42.183Z,99993.06
2023-02-06T21:46:43.883Z,100000.16
2023-02-06T21:51:45.539Z,99999.63
2023-02-06T21:56:47.219Z,100003.06
2023-02-06T22:01:48.884Z,100004.19
2023-02-06T22:06:50.625Z,100006.06
2023-02-06T22:11:52.339Z,100014.63
2023-02-06T22:16:54.268Z,100006.22
2023-02-06T22:21:55.946Z,100021.47
2023-02-06T22:26:57.575Z,100020.75
2023-02-06T22:32:04.364Z,100025.06
2023-02-06T22:37:06.068Z,100028.56
2023-02-06T22:42:07.761Z,100026.88
2023-02-06T22:47:09.420Z,100016.78
2023-02-06T22:52:31.115Z,100001.72
2023-02-06T22:57:35.236Z,100010.28
2023-02-06T23:02:38.431Z,100023.78
2023-02-06T23:07:40.149Z,100017.09
2023-02-06T23:12:41.768Z,100027.19
2023-02-06T23:17:43.454Z,100029.69
2023-02-06T23:22:45.073Z,100028.03
2023-02-06T23:27:46.728Z,100029.72
2023-02-06T23:32:48.766Z,100020.47
2023-02-06T23:37:50.392Z,100028.88
2023-02-06T23:42:52.066Z,100030.56
2023-02-06T23:47:56.414Z,100026.34
2023-02-06T23:52:58.115Z,100023.78
2023-02-06T23:57:59.773Z,100034.72
